Flight Track Log - Related Links

Times and Time Zones

All times are in EDT time to prevent confusion due to time zone crossing. See the SWA1044 flight status page for this flight to view local times or setup timezone preferences in your user account.

Time Position Orientation Groundspeed Altitude Reporting Facility
EDT Latitude Longitude Course Direction KTS MPH feet Rate Location/Type
Wed 12:24:42 PM 29.9483 -90.3006 230° Southwest 230 265 3,400  Level Houston Center
Wed 12:24:58 PM 29.9492 -90.3189 273° West 266 306 4,100 3,639 Climbing Houston Center
Wed 12:25:43 PM 29.9444 -90.3872 265° West 287 330 7,100 3,581 Climbing Houston Center
Wed 12:26:00 PM 29.9456 -90.4058 274° West 266 306 7,800 2,430 Climbing Houston Center
Wed 12:27:02 PM 29.9358 -90.4992 263° West 280 322 10,300 2,081 Climbing Houston Center
Wed 12:28:04 PM 29.9200 -90.6153 261° West 345 397 12,100 2,496 Climbing Houston Center
Wed 12:29:07 PM 29.9064 -90.7394 263° West 386 444 15,500 3,216 Climbing Houston Center
Wed 12:30:09 PM 29.8928 -90.8900 264° West 395 455 18,800 2,661 Climbing Houston Center
Wed 12:31:11 PM 29.8800 -91.0225 264° West 404 465 21,000 2,226 Climbing Houston Center
Wed 12:32:13 PM 29.8639 -91.1592 262° West 419 482 23,400 2,274 Climbing Houston Center
Wed 12:33:15 PM 29.8664 -91.2972 271° West 437 503 25,700 2,032 Climbing Houston Center
Wed 12:34:17 PM 29.8839 -91.4367 278° West 441 507 27,600 2,323 Climbing Houston Center
Wed 12:35:19 PM 29.9008 -91.6033 277° West 439 505 30,500 2,400 Climbing Houston Center
Wed 12:36:22 PM 29.9144 -91.7403 277° West 430 495 32,600 2,448 Climbing Houston Center
Wed 12:37:24 PM 29.9283 -91.8717 277° West 418 481 35,600 2,613 Climbing Houston Center
Wed 12:38:26 PM 29.9403 -91.9783 277° West 349 402 38,000 1,161 Climbing Houston Center
Wed 12:39:28 PM 29.9506 -92.0853 276° West 336 387 38,000  Level Houston Center
Wed 12:40:30 PM 29.9619 -92.1928 277° West 338 389 38,000  Level Houston Center
Wed 12:41:32 PM 29.9756 -92.3225 277° West 339 390 38,000  Level Houston Center
Wed 12:42:34 PM 29.9853 -92.4314 276° West 340 391 38,000  Level Houston Center
Wed 12:43:37 PM 29.9972 -92.5397 277° West 340 391 38,000  Level Houston Center
Wed 12:44:39 PM 30.0075 -92.6489 276° West 344 396 38,000  Level Houston Center
Wed 12:45:41 PM 30.0183 -92.7569 277° West 341 392 38,000  Level Houston Center
Wed 12:46:43 PM 30.0289 -92.8642 277° West 337 388 38,000  Level Houston Center
Wed 12:47:45 PM 30.0406 -92.9933 276° West 338 389 38,000  Level Houston Center
Wed 12:48:47 PM 30.0514 -93.1006 277° West 337 388 38,000  Level Houston Center
Wed 12:49:49 PM 30.0611 -93.2089 276° West 338 389 38,000  Level Houston Center
Wed 12:50:52 PM 30.0717 -93.3178 276° West 340 391 38,000  Level Houston Center
Wed 12:51:54 PM 30.0825 -93.4272 277° West 343 395 38,000  Level Houston Center
Wed 12:53:08 PM 30.0947 -93.5692 276° West 341 392 38,000  Level Houston Center
Wed 12:54:11 PM 30.1047 -93.6772 276° West 340 391 38,000  Level Houston Center
Wed 12:55:13 PM 30.1144 -93.7850 276° West 339 390 38,000  Level Houston Center
Wed 12:56:15 PM 30.1233 -93.8914 276° West 335 386 38,000  Level Houston Center
Wed 12:57:17 PM 30.1353 -94.0189 276° West 335 386 38,000  Level Houston Center
Wed 12:58:19 PM 30.1444 -94.1253 276° West 334 384 38,000  Level Houston Center
Wed 12:59:21 PM 30.1547 -94.2319 276° West 335 386 38,000  Level Houston Center
Wed 01:00:23 PM 30.1639 -94.3408 276° West 341 392 38,000  Level Houston Center
Wed 01:01:26 PM 30.1731 -94.4486 276° West 339 390 38,000  Level Houston Center
Wed 01:02:28 PM 30.1844 -94.5792 276° West 341 392 38,000  Level Houston Center
Wed 01:03:30 PM 30.1933 -94.6869 275° West 340 391 38,000  Level Houston Center
Wed 01:04:32 PM 30.2006 -94.7939 274° West 337 388 38,000  Level Houston Center
Wed 01:05:34 PM 30.2089 -94.9028 275° West 341 392 38,000  Level Houston Center
Wed 01:06:37 PM 30.2178 -95.0100 276° West 339 390 38,000  Level Houston Center
Wed 01:07:39 PM 30.2269 -95.1381 275° West 336 387 38,000  Level Houston Center
Wed 01:08:41 PM 30.2342 -95.2447 275° West 335 386 38,000  Level Houston Center
Wed 01:09:43 PM 30.2414 -95.3506 275° West 333 383 38,000  Level Houston Center
Wed 01:10:45 PM 30.2492 -95.4581 275° West 336 387 38,000  Level Houston Center
Wed 01:11:47 PM 30.2569 -95.5661 275° West 338 389 38,000  Level Houston Center
Wed 01:12:49 PM 30.2650 -95.6942 274° West 335 386 38,000  Level Houston Center
Wed 01:13:52 PM 30.2728 -95.8019 275° West 336 387 38,000  Level Houston Center
Wed 01:14:54 PM 30.2786 -95.9081 274° West 334 384 38,000  Level Houston Center
Wed 01:15:56 PM 30.2858 -96.0144 275° West 333 383 38,000  Level Houston Center
Wed 01:16:58 PM 30.2939 -96.1317 275° West 332 382 38,000  Level Houston Center
Wed 01:18:00 PM 30.3003 -96.2394 274° West 332 382 38,000  Level Houston Center
Wed 01:19:02 PM 30.3075 -96.3469 274° West 331 381 38,000  Level Houston Center
Wed 01:20:04 PM 30.3144 -96.4556 274° West 334 384 38,000  Level Houston Center
Wed 01:21:07 PM 30.3208 -96.5622 274° West 330 380 38,000  Level Houston Center
Wed 01:22:09 PM 30.3269 -96.6711 274° West 333 383 38,000  Level Houston Center
Wed 01:23:11 PM 30.3347 -96.7958 274° West 330 380 38,000  Level Houston Center
Wed 01:24:13 PM 30.3408 -96.9033 274° West 330 380 38,000  Level Houston Center
Wed 01:25:15 PM 30.3486 -97.0092 275° West 328 377 38,000  Level Houston Center
Wed 01:26:17 PM 30.3539 -97.1150 273° West 326 375 38,000  Level Houston Center
Wed 01:27:19 PM 30.3600 -97.2194 274° West 322 371 38,000  Level Houston Center
Wed 01:28:21 PM 30.3664 -97.3250 274° West 325 374 38,000  Level Houston Center
Wed 01:29:23 PM 30.3725 -97.4294 274° West 323 372 38,000  Level Houston Center
Wed 01:30:25 PM 30.3781 -97.5364 273° West 327 376 38,000  Level Houston Center
Wed 01:31:27 PM 30.3925 -97.6625 278° West 334 384 38,000  Level Houston Center
Wed 01:32:29 PM 30.4206 -97.7686 287° West 339 390 38,000  Level Houston Center
Wed 01:33:31 PM 30.4469 -97.8769 286° West 343 395 38,000  Level Houston Center
Wed 01:34:33 PM 30.4739 -97.9833 286° West 343 395 38,000  Level Houston Center
Wed 01:35:36 PM 30.4994 -98.0914 285° West 344 396 38,000  Level Houston Center
Wed 01:36:38 PM 30.5269 -98.1994 286° West 345 397 38,000  Level Houston Center
Wed 01:37:40 PM 30.5542 -98.3086 286° West 348 400 38,000  Level Houston Center
Wed 01:38:42 PM 30.5811 -98.4183 286° West 350 403 38,000  Level Houston Center
Wed 01:39:44 PM 30.6125 -98.5472 286° West 352 405 38,000  Level Houston Center
Wed 01:40:46 PM 30.6392 -98.6592 286° West 355 409 38,000  Level Houston Center
Wed 01:41:48 PM 30.6653 -98.7714 285° West 357 411 38,000  Level Houston Center
Wed 01:42:50 PM 30.6936 -98.8819 287° West 355 409 38,000  Level Houston Center
Wed 01:43:52 PM 30.7192 -98.9942 285° West 356 410 38,000  Level Houston Center
Wed 01:44:54 PM 30.7461 -99.1047 286° West 353 406 38,000  Level Houston Center
Wed 01:45:56 PM 30.7739 -99.2214 286° West 355 409 38,000  Level Houston Center
Wed 01:46:58 PM 30.8006 -99.3317 286° West 356 410 38,000  Level Houston Center
Wed 01:48:01 PM 30.8267 -99.4408 286° West 352 405 38,000  Level Houston Center
Wed 01:49:03 PM 30.8556 -99.5719 284° West 353 406 38,000  Level Houston Center
Wed 01:50:05 PM 30.8825 -99.6842 286° West 359 413 38,000  Level Houston Center
Wed 01:51:07 PM 30.9083 -99.7956 285° West 357 411 38,000  Level Houston Center
Wed 01:52:09 PM 30.9356 -99.9097 286° West 367 422 38,000  Level Houston Center
Wed 01:53:11 PM 30.9603 -100.0228 284° West 364 419 38,000  Level Houston Center
Wed 01:54:13 PM 30.9931 -100.1631 285° West 375 432 38,000  Level Houston Center
Wed 01:55:15 PM 31.0197 -100.2775 285° West 369 425 38,000  Level Houston Center
Wed 01:56:17 PM 31.0472 -100.3956 285° West 377 434 38,000  Level Houston Center
Wed 01:57:20 PM 31.0936 -100.5069 296° West 387 445 38,000  Level Houston Center
Wed 01:57:55 PM 31.1381 -100.5756 307° West 408 470 38,000  Level Fort Worth Center
Wed 01:58:55 PM 31.2083 -100.6800 308° West 415 478 38,000  Level Fort Worth Center
Wed 01:59:55 PM 31.2786 -100.7869 308° West 415 478 38,000  Level Fort Worth Center
Wed 02:00:55 PM 31.3508 -100.8942 308° West 420 483 38,000  Level Fort Worth Center
Wed 02:01:55 PM 31.4272 -101.0042 309° West 406 467 38,000 400 Level Fort Worth Center
Wed 02:02:55 PM 31.4992 -101.1117 308° West 406 467 38,800 750 Climbing Fort Worth Center
Wed 02:03:55 PM 31.5711 -101.2194 308° West 416 479 39,500 600 Climbing Fort Worth Center
Wed 02:04:55 PM 31.6469 -101.3300 309° West 421 484 40,000 250 Climbing Fort Worth Center
Wed 02:05:55 PM 31.7228 -101.4431 308° West 432 497 40,000  Level Fort Worth Center
Wed 02:06:56 PM 31.7944 -101.5536 307° West 432 497 40,000  Level Fort Worth Center
Wed 02:07:55 PM 31.8658 -101.6644 307° West 432 497 40,000  Level Fort Worth Center
Wed 02:08:55 PM 31.9392 -101.7756 308° West 426 490 40,000  Level Fort Worth Center
Wed 02:09:55 PM 32.0125 -101.8894 307° West 431 496 40,000  Level Fort Worth Center
Wed 02:10:55 PM 32.0856 -102.0008 308° West 431 496 40,000  Level Fort Worth Center
Wed 02:11:55 PM 32.1525 -102.1097 306° West 423 487 40,000  Level Fort Worth Center
Wed 02:12:55 PM 32.2256 -102.2192 308° West 423 487 40,000  Level Fort Worth Center
Wed 02:13:55 PM 32.2944 -102.3283 307° West 423 487 40,000  Level Fort Worth Center
Wed 02:14:55 PM 32.3650 -102.4428 306° West 428 493 40,000  Level Fort Worth Center
Wed 02:15:55 PM 32.4283 -102.5300 311° West 433 498 40,000  Level Fort Worth Center
Wed 02:16:55 PM 32.5044 -102.6575 305° West 433 498 40,000  Level Fort Worth Center
Wed 02:17:55 PM 32.5792 -102.7703 308° West 428 493 40,000  Level Fort Worth Center
Wed 02:18:55 PM 32.6514 -102.8806 308° West 428 493 40,000  Level Fort Worth Center
Wed 02:19:55 PM 32.7239 -102.9936 307° West 428 493 40,000  Level Fort Worth Center
Wed 02:21:36 PM 32.8336 -103.1722 306° West 430 495 40,000  Level Albuquerque Center
Wed 02:22:38 PM 32.9211 -103.3103 307° West 434 499 40,000  Level Albuquerque Center
Wed 02:23:39 PM 32.9922 -103.4261 306° West 435 501 40,000  Level Albuquerque Center
Wed 02:24:41 PM 33.0644 -103.5414 307° West 435 501 40,000  Level Albuquerque Center
Wed 02:25:43 PM 33.1369 -103.6561 307° West 434 499 40,000  Level Albuquerque Center
Wed 02:26:45 PM 33.2228 -103.7850 309° West 443 510 40,000  Level Albuquerque Center
Wed 02:27:47 PM 33.2992 -103.9097 306° West 436 502 40,000  Level Albuquerque Center
Wed 02:28:49 PM 33.3700 -104.0244 306° West 432 497 40,000  Level Albuquerque Center
Wed 02:29:51 PM 33.4444 -104.1478 306° West 428 493 40,000  Level Albuquerque Center
Wed 02:30:52 PM 33.5133 -104.2625 306° West 427 491 40,000  Level Albuquerque Center
Wed 02:31:54 PM 33.5883 -104.3839 307° West 424 488 40,000  Level Albuquerque Center
Wed 02:32:56 PM 33.6572 -104.4983 306° West 425 489 40,000  Level Albuquerque Center
Wed 02:33:58 PM 33.7272 -104.6128 306° West 426 490 40,000  Level Albuquerque Center
Wed 02:35:00 PM 33.8028 -104.7358 306° West 427 491 40,000  Level Albuquerque Center
Wed 02:36:02 PM 33.8733 -104.8525 306° West 432 497 40,000  Level Albuquerque Center
Wed 02:37:04 PM 33.9500 -104.9792 306° West 437 503 40,000  Level Albuquerque Center
Wed 02:38:05 PM 34.0200 -105.0978 305° West 435 501 40,000  Level Albuquerque Center
Wed 02:39:07 PM 34.0939 -105.2178 307° West 442 509 40,000  Level Albuquerque Center
Wed 02:40:09 PM 34.1650 -105.3375 306° West 439 505 40,000  Level Albuquerque Center
Wed 02:41:11 PM 34.2358 -105.4567 306° West 435 501 40,000  Level Albuquerque Center
Wed 02:43:14 PM 34.3756 -105.6972 305° West 435 501 40,000  Level Albuquerque Center
Wed 02:44:16 PM 34.4239 -105.8311 294° West 433 498 40,000  Level Albuquerque Center
Wed 02:45:18 PM 34.4808 -105.9881 294° West 432 497 40,000  Level Albuquerque Center
Wed 02:46:20 PM 34.5044 -106.1317 281° West 432 497 40,000  Level Albuquerque Center
Wed 02:47:21 PM 34.5281 -106.2753 281° West 436 502 40,000  Level Albuquerque Center
Wed 02:48:23 PM 34.5556 -106.4181 283° West 436 502 40,000  Level Albuquerque Center
Wed 02:49:25 PM 34.5817 -106.5594 283° West 431 496 40,000 48 Level Albuquerque Center
Wed 02:50:27 PM 34.6075 -106.7011 283° West 429 494 40,100  Climbing Albuquerque Center
Wed 02:51:28 PM 34.6331 -106.8456 282° West 433 498 40,000 -49 Descending Albuquerque Center
Wed 02:52:30 PM 34.6581 -106.9931 282° West 441 507 40,000  Level Albuquerque Center
Wed 02:53:32 PM 34.6842 -107.1397 282° West 441 507 40,000  Level Albuquerque Center
Wed 02:54:33 PM 34.7100 -107.2850 282° West 439 505 40,000  Level Albuquerque Center
Wed 02:55:35 PM 34.7358 -107.4311 282° West 439 505 40,000  Level Albuquerque Center
Wed 02:56:37 PM 34.7658 -107.6064 282° West 439 505 40,000  Level Albuquerque Center
Wed 02:57:39 PM 34.7894 -107.7508 281° West 437 503 40,000  Level Albuquerque Center
Wed 02:58:41 PM 34.8147 -107.8961 282° West 437 503 40,000  Level Albuquerque Center
Wed 02:59:42 PM 34.8386 -108.0392 282° West 434 499 40,000  Level Albuquerque Center
Wed 03:00:44 PM 34.8628 -108.1825 282° West 432 497 40,000  Level Albuquerque Center
Wed 03:01:46 PM 34.8889 -108.3408 281° West 428 493 40,000  Level Albuquerque Center
Wed 03:02:48 PM 34.9117 -108.4756 282° West 426 490 40,000  Level Albuquerque Center
Wed 03:03:49 PM 34.9369 -108.6336 281° West 424 488 40,000  Level Albuquerque Center
Wed 03:04:51 PM 34.9597 -108.7708 281° West 428 493 40,000  Level Albuquerque Center
Wed 03:05:53 PM 34.9844 -108.9297 281° West 427 491 40,000  Level Albuquerque Center
Wed 03:06:55 PM 35.0067 -109.0656 281° West 426 490 40,000  Level Albuquerque Center
Wed 03:07:56 PM 35.0283 -109.2039 281° West 430 495 40,000  Level Albuquerque Center
Wed 03:08:58 PM 35.0539 -109.3636 281° West 430 495 40,000  Level Albuquerque Center
Wed 03:10:00 PM 35.0744 -109.4997 280° West 427 491 40,000  Level Albuquerque Center
Wed 03:11:01 PM 35.0986 -109.6592 281° West 426 490 40,000  Level Albuquerque Center
Wed 03:12:03 PM 35.1200 -109.8006 281° West 434 499 40,000  Level Albuquerque Center
Wed 03:13:05 PM 35.1431 -109.9411 281° West 439 505 40,000  Level Albuquerque Center
Wed 03:14:07 PM 35.1669 -110.1011 280° West 432 497 40,000  Level Albuquerque Center
Wed 03:15:08 PM 35.1858 -110.2375 280° West 428 493 40,000  Level Albuquerque Center
Wed 03:16:10 PM 35.2056 -110.3967 279° West 426 490 40,000  Level Albuquerque Center
Wed 03:17:12 PM 35.2256 -110.5333 280° West 426 490 40,000  Level Albuquerque Center
Wed 03:18:13 PM 35.2475 -110.6931 280° West 427 491 40,000  Level Albuquerque Center
Wed 03:19:15 PM 35.2667 -110.8322 280° West 430 495 40,000  Level Albuquerque Center
Wed 03:20:17 PM 35.2883 -110.9703 281° West 431 496 40,000  Level Albuquerque Center
Wed 03:21:19 PM 35.3111 -111.1250 280° West 430 495 40,000  Level Albuquerque Center
Wed 03:22:20 PM 35.3289 -111.2578 279° West 404 465 40,000 -1,366 Level Albuquerque Center
Wed 03:23:22 PM 35.3486 -111.4122 279° West 408 470 37,200 -2,952 Descending Albuquerque Center
Wed 03:24:24 PM 35.3708 -111.5592 281° West 435 501 33,900 -2,468 Descending Albuquerque Center
Wed 03:25:26 PM 35.3903 -111.7036 279° West 431 496 32,100 -1,597 Descending Albuquerque Center
Wed 03:26:28 PM 35.4100 -111.8519 279° West 438 504 30,600 -1,024 Descending Albuquerque Center
Wed 03:27:29 PM 35.4294 -112.0006 279° West 443 510 30,000 -293 Descending Albuquerque Center
Wed 03:28:31 PM 35.4492 -112.1506 279° West 447 514 30,000  Level Albuquerque Center
Wed 03:29:33 PM 35.4725 -112.3300 279° West 447 514 30,000  Level Albuquerque Center
Wed 03:29:59 PM 35.4811 -112.3903 280° West 448 516 30,000  Level Los Angeles Center
Wed 03:31:02 PM 35.4997 -112.5386 279° West 446 513 30,000  Level Los Angeles Center
Wed 03:32:03 PM 35.5208 -112.6969 279° West 447 514 30,000  Level Los Angeles Center
Wed 03:33:06 PM 35.5392 -112.8489 278° West 448 516 30,000  Level Los Angeles Center
Wed 03:34:08 PM 35.5611 -113.0272 279° West 450 518 30,000  Level Los Angeles Center
Wed 03:35:10 PM 35.5806 -113.1797 279° West 451 519 30,000  Level Los Angeles Center
Wed 03:36:12 PM 35.5967 -113.3153 278° West 451 519 30,000 -1,161 Level Los Angeles Center
Wed 03:37:14 PM 35.6194 -113.4978 279° West 452 520 27,600 -2,516 Descending Los Angeles Center
Wed 03:38:16 PM 35.6381 -113.6456 279° West 442 509 24,800 -2,419 Descending Los Angeles Center
Wed 03:39:18 PM 35.6581 -113.7781 281° West 398 458 22,600 -2,112 Descending Los Angeles Center
Wed 03:40:21 PM 35.6747 -113.8981 280° West 361 415 20,400 -2,880 Descending Los Angeles Center
Wed 03:41:23 PM 35.6925 -114.0203 280° West 363 418 16,600 -3,435 Descending Los Angeles Center
Wed 03:42:25 PM 35.7131 -114.1728 279° West 390 449 13,300 -2,348 Descending Los Angeles Center
Wed 03:43:18 PM 35.7294 -114.2875 280° West 368 423 12,100 -1,054 Descending Los Angeles Center
Wed 03:43:39 PM 35.7292 -114.2950 267° West 366 421 12,000 -357 Descending Los Angeles Center
Wed 03:44:42 PM 35.7661 -114.4022 293° West 286 329 11,600 -624 Descending Los Angeles Center
Wed 03:45:44 PM 35.7656 -114.4992 270° West 280 322 10,700 -762 Descending Los Angeles Center
Wed 03:46:48 PM 35.7575 -114.6094 265° West 268 308 10,000 -316 Descending Los Angeles Center
Wed 03:47:57 PM 35.7508 -114.7103 265° West 249 287 10,000  Level Los Angeles Center
Wed 03:48:50 PM 35.7461 -114.7778 265° West 248 285 10,000  Level Los Angeles Center
Wed 03:49:52 PM 35.7158 -114.8578 245° Southwest 258 297 10,000  Level Los Angeles Center
Wed 03:50:55 PM 35.6744 -114.9344 236° Southwest 265 305 10,000  Level Los Angeles Center
Wed 03:51:57 PM 35.6353 -115.0125 238° Southwest 267 307 10,000 -387 Level Los Angeles Center
Wed 03:52:59 PM 35.6269 -115.0939 263° West 257 296 9,200 -484 Descending Los Angeles Center
Wed 03:54:01 PM 35.6383 -115.1900 278° West 242 278 9,000 -97 Descending Los Angeles Center
Wed 03:55:03 PM 35.6472 -115.2717 278° West 232 267 9,000 -98 Level Los Angeles Center
Wed 03:56:03 PM 35.7072 -115.2892 347° North 217 250 8,800 -545 Descending Los Angeles Center
Wed 03:57:04 PM 35.7650 -115.2969 354° North 213 245 7,900 -667 Descending Los Angeles Center
Wed 03:58:09 PM 35.8167 -115.3031 355° North 207 238 7,400 -803 Descending Los Angeles Center
Wed 03:59:11 PM 35.8656 -115.2833 18° North 193 222 6,200 -726 Descending Los Angeles Center
Wed 04:00:13 PM 35.9128 -115.2611 21° North 188 216 5,900 -528 Descending Los Angeles Center
Wed 04:01:16 PM 35.9694 -115.2319 23° Northeast 182 209 5,100 -983 Descending Los Angeles Center
Wed 04:02:09 PM 36.0072 -115.2094 26° Northeast 174 200 4,000 -1,065 Descending Los Angeles Center
Wed 04:03:20 PM 36.0497 -115.1842 26° Northeast 172 198 2,900 -857 Descending Los Angeles Center
Wed 04:04:22 PM 36.0861 -115.1636 25° Northeast 162 186 2,100 -774 Descending Los Angeles Center

Login

Don't have an account? Register now (free) for customized features, flight alerts, and more!